Time,TemperatureF,DewpointF,PressureIn,WindDirection,WindDirectionDegrees,WindSpeedMPH,WindSpeedGustMPH,Humidity,HourlyPrecipIn,Conditions,Clouds,dailyrainin,SoftwareType,DateUTC
2013-09-09 00:01:00,69.1,67.6,29.97,SSW,209,0.0,0.0,95,0.00,,,0.00,meteohub,2013-09-09 04:01:00,
2013-09-09 00:06:00,68.7,67.3,29.97,SSW,209,0.0,0.0,95,0.00,,,0.00,meteohub,2013-09-09 04:06:00,
2013-09-09 00:11:00,68.7,67.3,29.97,SSW,209,0.0,0.0,95,0.00,,,0.00,meteohub,2013-09-09 04:11:00,
2013-09-09 00:16:00,68.5,67.1,29.97,SSW,209,0.0,0.0,95,0.00,,,0.00,meteohub,2013-09-09 04:16:00,
2013-09-09 00:21:00,68.7,67.5,29.97,SSW,209,0.0,0.0,96,0.00,,,0.00,meteohub,2013-09-09 04:21:00,
2013-09-09 00:26:00,68.7,67.5,29.97,SSW,209,0.0,0.0,96,0.00,,,0.00,meteohub,2013-09-09 04:26:00,
2013-09-09 00:31:00,68.7,67.5,29.97,SSW,209,0.0,0.0,96,0.00,,,0.00,meteohub,2013-09-09 04:31:00,
2013-09-09 00:36:00,68.9,67.6,29.97,SSW,209,0.0,0.0,96,0.00,,,0.00,meteohub,2013-09-09 04:36:00,
2013-09-09 00:41:00,68.7,67.5,29.97,SSW,209,0.0,0.0,96,0.00,,,0.00,meteohub,2013-09-09 04:41:00,
2013-09-09 00:46:00,68.7,67.5,29.97,SSW,209,0.0,0.0,96,0.00,,,0.00,meteohub,2013-09-09 04:46:00,
2013-09-09 00:51:00,68.7,67.5,29.97,SSW,209,0.0,0.0,96,0.00,,,0.00,meteohub,2013-09-09 04:51:00,
2013-09-09 00:56:00,68.5,67.3,29.97,SSW,209,0.0,0.0,96,0.00,,,0.00,meteohub,2013-09-09 04:56:00,
2013-09-09 01:01:00,68.4,67.1,29.97,SSW,209,0.0,0.0,96,0.00,,,0.00,meteohub,2013-09-09 05:01:00,
2013-09-09 01:06:00,68.4,67.1,29.97,SSW,209,0.0,0.0,96,0.00,,,0.00,meteohub,2013-09-09 05:06:00,
2013-09-09 01:11:00,68.2,66.9,29.97,SSW,209,0.0,0.0,96,0.00,,,0.00,meteohub,2013-09-09 05:11:00,
2013-09-09 01:16:00,68.0,66.7,29.97,SSW,209,0.0,0.0,96,0.00,,,0.00,meteohub,2013-09-09 05:16:00,
2013-09-09 01:21:00,67.8,66.6,29.97,SSW,209,0.0,0.0,96,0.00,,,0.00,meteohub,2013-09-09 05:21:00,
2013-09-09 01:26:00,67.8,66.6,29.97,SSW,209,0.0,0.0,96,0.00,,,0.00,meteohub,2013-09-09 05:26:00,
2013-09-09 01:31:00,67.6,66.4,29.97,SSW,209,0.0,0.0,96,0.00,,,0.00,meteohub,2013-09-09 05:31:00,
2013-09-09 01:36:00,67.6,66.4,29.97,SSW,209,0.0,0.0,96,0.00,,,0.00,meteohub,2013-09-09 05:36:00,
2013-09-09 01:42:00,67.6,66.4,29.97,SSW,209,0.0,0.0,96,0.00,,,0.00,meteohub,2013-09-09 05:42:00,
2013-09-09 01:47:00,67.6,66.7,29.97,SSW,209,0.0,0.0,97,0.00,,,0.00,meteohub,2013-09-09 05:47:00,
2013-09-09 01:52:00,67.6,66.7,29.97,SSW,209,0.0,0.0,97,0.00,,,0.00,meteohub,2013-09-09 05:52:00,
2013-09-09 01:57:00,67.6,66.7,29.97,SSW,209,0.0,0.0,97,0.00,,,0.00,meteohub,2013-09-09 05:57:00,
2013-09-09 02:02:00,67.6,66.4,29.97,SSW,209,0.0,0.0,96,0.00,,,0.00,meteohub,2013-09-09 06:02:00,
2013-09-09 02:07:00,67.3,66.0,29.97,SSW,209,0.0,0.0,96,0.00,,,0.00,meteohub,2013-09-09 06:07:00,
2013-09-09 02:12:00,67.1,65.8,29.98,SSW,209,0.0,0.0,96,0.00,,,0.00,meteohub,2013-09-09 06:12:00,
2013-09-09 02:17:00,66.9,65.7,29.97,SSW,209,0.0,0.0,96,0.00,,,0.00,meteohub,2013-09-09 06:17:00,
2013-09-09 02:22:00,66.7,65.5,29.98,SSW,209,0.0,0.0,96,0.00,,,0.00,meteohub,2013-09-09 06:22:00,
2013-09-09 02:27:00,66.6,65.3,29.97,SSW,209,0.0,0.0,96,0.00,,,0.00,meteohub,2013-09-09 06:27:00,
2013-09-09 02:32:00,66.6,65.3,29.97,SSW,209,0.0,0.0,96,0.00,,,0.00,meteohub,2013-09-09 06:32:00,
2013-09-09 02:37:00,66.4,65.1,29.97,SSW,209,0.0,0.0,96,0.00,,,0.00,meteohub,2013-09-09 06:37:00,
2013-09-09 02:42:00,66.4,65.1,29.97,SSW,209,0.0,0.0,96,0.00,,,0.00,meteohub,2013-09-09 06:42:00,
2013-09-09 02:47:00,66.2,64.9,29.97,SSW,209,0.0,0.0,96,0.00,,,0.00,meteohub,2013-09-09 06:47:00,
2013-09-09 02:52:00,66.0,64.8,29.98,SSW,209,0.0,-999.0,96,0.00,,,0.00,meteohub,2013-09-09 06:52:00,
2013-09-09 02:57:00,66.0,64.8,29.98,SSW,209,0.0,0.0,96,0.00,,,0.00,meteohub,2013-09-09 06:57:00,
2013-09-09 03:02:00,65.8,64.6,29.98,SSW,209,0.0,0.0,96,0.00,,,0.00,meteohub,2013-09-09 07:02:00,
2013-09-09 03:07:00,65.8,64.9,29.98,SSW,209,0.0,0.0,97,0.00,,,0.00,meteohub,2013-09-09 07:07:00,
2013-09-09 03:12:00,65.8,64.9,29.98,SSW,209,0.0,0.0,97,0.00,,,0.00,meteohub,2013-09-09 07:12:00,
2013-09-09 03:17:00,65.7,64.8,29.98,SSW,209,0.0,0.0,97,0.00,,,0.00,meteohub,2013-09-09 07:17:00,
2013-09-09 03:22:00,65.7,64.8,29.98,SSW,209,0.0,0.0,97,0.00,,,0.00,meteohub,2013-09-09 07:22:00,
2013-09-09 03:27:00,65.7,64.8,29.98,SSW,209,0.0,0.0,97,0.00,,,0.00,meteohub,2013-09-09 07:27:00,
2013-09-09 03:32:00,65.8,64.9,29.98,SSW,209,0.0,0.0,97,0.00,,,0.00,meteohub,2013-09-09 07:32:00,
2013-09-09 03:37:00,66.0,65.1,29.98,SSW,209,0.0,0.0,97,0.00,,,0.00,meteohub,2013-09-09 07:37:00,
2013-09-09 03:42:00,66.0,65.1,29.98,SSW,209,0.0,-999.0,97,0.00,,,0.00,meteohub,2013-09-09 07:42:00,
2013-09-09 03:47:00,66.0,65.1,29.98,SSW,209,0.0,0.0,97,0.00,,,0.00,meteohub,2013-09-09 07:47:00,
2013-09-09 03:52:00,66.0,65.1,29.98,SSW,209,0.0,0.0,97,0.00,,,0.00,meteohub,2013-09-09 07:52:00,
2013-09-09 03:57:00,65.8,64.9,29.98,SSW,209,0.0,0.0,97,0.00,,,0.00,meteohub,2013-09-09 07:57:00,
2013-09-09 04:02:00,65.8,64.9,29.98,SSW,209,0.0,0.0,97,0.00,,,0.00,meteohub,2013-09-09 08:02:00,
2013-09-09 04:07:00,65.7,64.8,29.98,SSW,209,0.0,0.0,97,0.00,,,0.00,meteohub,2013-09-09 08:07:00,
2013-09-09 04:12:00,65.7,64.8,29.98,SSW,209,0.0,0.0,97,0.00,,,0.00,meteohub,2013-09-09 08:12:00,
2013-09-09 04:17:00,65.5,64.6,29.98,SSW,209,0.0,0.0,97,0.00,,,0.00,meteohub,2013-09-09 08:17:00,
2013-09-09 04:22:00,65.5,64.6,29.98,SSW,209,0.0,0.0,97,0.00,,,0.00,meteohub,2013-09-09 08:22:00,
2013-09-09 04:27:00,65.3,64.4,29.98,SSW,209,0.0,0.0,97,0.00,,,0.00,meteohub,2013-09-09 08:27:00,
2013-09-09 04:32:00,65.3,64.4,29.99,SSW,209,0.0,0.0,97,0.00,,,0.00,meteohub,2013-09-09 08:32:00,
2013-09-09 04:37:00,65.1,64.2,29.99,SSW,209,0.0,0.0,97,0.00,,,0.00,meteohub,2013-09-09 08:37:00,
2013-09-09 04:42:00,65.1,64.2,29.99,SSW,209,0.0,0.0,97,0.00,,,0.00,meteohub,2013-09-09 08:42:00,
2013-09-09 04:47:00,65.1,64.2,29.99,SSW,209,0.0,0.0,97,0.00,,,0.00,meteohub,2013-09-09 08:47:00,
2013-09-09 04:52:00,65.1,64.2,29.99,SSW,209,0.0,0.0,97,0.00,,,0.00,meteohub,2013-09-09 08:52:00,
2013-09-09 04:57:00,65.1,64.2,29.99,SSW,209,0.0,0.0,97,0.00,,,0.00,meteohub,2013-09-09 08:57:00,
2013-09-09 05:02:00,65.1,64.2,29.99,SSW,209,0.0,0.0,97,0.00,,,0.00,meteohub,2013-09-09 09:02:00,
2013-09-09 05:07:00,64.9,64.0,29.99,SSW,209,0.0,0.0,97,0.00,,,0.00,meteohub,2013-09-09 09:07:00,
2013-09-09 05:12:00,64.9,64.0,29.99,SSW,209,0.0,0.0,97,0.00,,,0.00,meteohub,2013-09-09 09:12:00,
2013-09-09 05:17:00,64.9,64.0,29.99,SSW,209,0.0,0.0,97,0.00,,,0.00,meteohub,2013-09-09 09:17:00,
2013-09-09 05:22:00,64.9,64.0,29.99,SSW,209,0.0,0.0,97,0.00,,,0.00,meteohub,2013-09-09 09:22:00,
2013-09-09 05:27:00,65.1,64.2,29.99,SSW,209,0.0,0.0,97,0.00,,,0.00,meteohub,2013-09-09 09:27:00,
2013-09-09 05:32:00,65.3,64.8,30.00,SSW,209,0.0,0.0,98,0.00,,,0.00,meteohub,2013-09-09 09:32:00,
2013-09-09 05:37:00,65.3,64.8,30.00,SSW,209,0.0,0.0,98,0.00,,,0.00,meteohub,2013-09-09 09:37:00,
2013-09-09 05:42:00,65.7,65.1,30.00,SSW,209,0.0,0.0,98,0.00,,,0.00,meteohub,2013-09-09 09:42:00,
2013-09-09 05:47:00,65.8,65.3,30.00,SSW,209,0.0,0.0,98,0.00,,,0.00,meteohub,2013-09-09 09:47:00,
2013-09-09 05:52:00,65.8,65.3,30.00,SSW,209,0.0,0.0,98,0.00,,,0.00,meteohub,2013-09-09 09:52:00,
2013-09-09 05:57:00,65.7,64.8,30.00,SSW,209,0.0,0.0,97,0.00,,,0.00,meteohub,2013-09-09 09:57:00,
2013-09-09 06:02:00,65.5,64.6,30.00,SSW,209,0.0,0.0,97,0.00,,,0.00,meteohub,2013-09-09 10:02:00,
2013-09-09 06:07:00,65.1,64.2,30.00,SSW,209,0.0,0.0,97,0.00,,,0.00,meteohub,2013-09-09 10:07:00,
2013-09-09 06:12:00,64.9,64.0,30.00,SSW,209,0.0,0.0,97,0.00,,,0.00,meteohub,2013-09-09 10:12:00,
2013-09-09 06:17:00,64.8,63.9,30.01,SSW,209,0.0,0.0,97,0.00,,,0.00,meteohub,2013-09-09 10:17:00,
2013-09-09 06:22:00,64.6,63.7,30.01,SSW,209,0.0,0.0,97,0.00,,,0.00,meteohub,2013-09-09 10:22:00,
2013-09-09 06:27:00,64.4,63.5,30.01,SSW,209,0.0,0.0,97,0.00,,,0.00,meteohub,2013-09-09 10:27:00,
2013-09-09 06:32:00,64.4,63.5,30.01,SSW,209,0.0,0.0,97,0.00,,,0.00,meteohub,2013-09-09 10:32:00,
2013-09-09 06:37:00,64.2,63.3,30.01,SSW,209,0.0,0.0,97,0.00,,,0.00,meteohub,2013-09-09 10:37:00,
2013-09-09 06:42:00,64.2,63.3,30.01,SSW,209,0.0,0.0,97,0.00,,,0.00,meteohub,2013-09-09 10:42:00,
2013-09-09 06:47:00,64.0,63.1,30.02,SSW,209,0.0,0.0,97,0.00,,,0.00,meteohub,2013-09-09 10:47:00,
2013-09-09 06:52:00,63.9,63.0,30.02,SSW,209,0.0,0.0,97,0.00,,,0.00,meteohub,2013-09-09 10:52:00,
2013-09-09 06:57:00,63.9,63.0,30.02,SSW,209,0.0,0.0,97,0.00,,,0.00,meteohub,2013-09-09 10:57:00,
2013-09-09 07:02:00,63.9,63.0,30.02,SSW,209,0.0,0.0,97,0.00,,,0.00,meteohub,2013-09-09 11:02:00,
2013-09-09 07:07:00,63.9,63.0,30.03,SSW,209,0.0,0.0,97,0.00,,,0.00,meteohub,2013-09-09 11:07:00,
2013-09-09 07:12:00,63.9,63.3,30.03,SSW,209,0.0,0.0,98,0.00,,,0.00,meteohub,2013-09-09 11:12:00,
2013-09-09 07:17:00,64.0,63.5,30.03,SSW,209,0.0,0.0,98,0.00,,,0.00,meteohub,2013-09-09 11:17:00,
2013-09-09 07:22:00,64.0,63.5,30.03,SW,224,0.0,0.0,98,0.00,,,0.00,meteohub,2013-09-09 11:22:00,
2013-09-09 07:27:00,64.2,63.7,30.03,SW,224,0.0,0.0,98,0.00,,,0.00,meteohub,2013-09-09 11:27:00,
2013-09-09 07:32:00,64.8,64.2,30.03,SW,224,0.0,1.0,98,0.00,,,0.00,meteohub,2013-09-09 11:32:00,
2013-09-09 07:37:00,65.3,64.8,30.03,SW,224,0.0,1.0,98,0.00,,,0.00,meteohub,2013-09-09 11:37:00,
2013-09-09 07:42:00,66.0,65.7,30.04,SW,224,0.0,1.0,99,0.00,,,0.00,meteohub,2013-09-09 11:42:00,
2013-09-09 07:47:00,66.7,66.4,30.04,SW,224,0.0,1.0,99,0.00,,,0.00,meteohub,2013-09-09 11:47:00,
2013-09-09 07:52:00,67.1,66.6,30.04,SW,224,0.0,0.0,98,0.00,,,0.00,meteohub,2013-09-09 11:52:00,
2013-09-09 07:57:00,67.8,67.3,30.04,SW,224,0.0,0.0,98,0.00,,,0.00,meteohub,2013-09-09 11:57:00,
2013-09-09 08:02:00,68.7,68.4,30.04,SW,224,0.0,0.0,99,0.00,,,0.00,meteohub,2013-09-09 12:02:00,
2013-09-09 08:07:00,69.6,69.1,30.04,SW,224,0.0,0.0,98,0.00,,,0.00,meteohub,2013-09-09 12:07:00,
2013-09-09 08:12:00,70.0,69.4,30.04,SW,224,0.0,0.0,98,0.00,,,0.00,meteohub,2013-09-09 12:12:00,
2013-09-09 08:17:00,71.1,70.5,30.04,SW,224,0.0,0.0,98,0.00,,,0.00,meteohub,2013-09-09 12:17:00,
2013-09-09 08:22:00,72.1,71.6,30.04,SW,224,0.0,0.0,98,0.00,,,0.00,meteohub,2013-09-09 12:22:00,
2013-09-09 08:27:00,73.0,72.5,30.04,SW,224,0.0,0.0,98,0.00,,,0.00,meteohub,2013-09-09 12:27:00,
2013-09-09 08:32:00,73.9,73.4,30.05,SW,224,0.0,0.0,98,0.00,,,0.00,meteohub,2013-09-09 12:32:00,
2013-09-09 08:37:00,74.7,73.8,30.05,SW,224,0.0,0.0,97,0.00,,,0.00,meteohub,2013-09-09 12:37:00,
2013-09-09 08:42:00,74.8,73.2,30.05,SW,224,0.0,0.0,95,0.00,,,0.00,meteohub,2013-09-09 12:42:00,
2013-09-09 08:47:00,75.6,73.8,30.05,SW,224,0.0,0.0,94,0.00,,,0.00,meteohub,2013-09-09 12:47:00,
2013-09-09 08:52:00,75.6,73.0,30.05,WNW,300,0.0,0.0,92,0.00,,,0.00,meteohub,2013-09-09 12:52:00,
2013-09-09 08:57:00,75.7,73.2,30.05,WNW,300,0.0,0.0,92,0.00,,,0.00,meteohub,2013-09-09 12:57:00,
2013-09-09 09:02:00,76.1,73.2,30.05,WNW,300,0.0,0.0,91,0.00,,,0.00,meteohub,2013-09-09 13:02:00,
2013-09-09 09:07:00,76.6,73.4,30.06,WNW,300,0.0,0.0,90,0.00,,,0.00,meteohub,2013-09-09 13:07:00,
2013-09-09 09:12:00,77.2,73.8,30.06,WNW,300,0.0,0.0,89,0.00,,,0.00,meteohub,2013-09-09 13:12:00,
2013-09-09 09:17:00,77.7,74.3,30.06,WNW,300,0.0,0.0,89,0.00,,,0.00,meteohub,2013-09-09 13:17:00,
2013-09-09 09:22:00,78.3,73.8,30.06,WNW,300,0.0,0.0,86,0.00,,,0.00,meteohub,2013-09-09 13:22:00,
2013-09-09 09:27:00,78.6,74.1,30.06,WNW,300,0.0,0.0,86,0.00,,,0.00,meteohub,2013-09-09 13:27:00,
2013-09-09 09:32:00,79.2,74.3,30.06,WNW,300,0.0,0.0,85,0.00,,,0.00,meteohub,2013-09-09 13:32:00,
2013-09-09 09:37:00,79.9,75.0,30.06,WNW,300,0.0,0.0,85,0.00,,,0.00,meteohub,2013-09-09 13:37:00,
2013-09-09 09:42:00,80.4,74.5,30.07,WNW,300,0.0,0.0,82,0.00,,,0.00,meteohub,2013-09-09 13:42:00,
2013-09-09 09:47:00,81.0,75.0,30.07,WNW,300,0.0,0.0,82,0.00,,,0.00,meteohub,2013-09-09 13:47:00,
2013-09-09 09:52:00,81.1,74.3,30.06,WNW,294,0.0,0.0,80,0.00,,,0.00,meteohub,2013-09-09 13:52:00,
2013-09-09 09:57:00,81.5,74.3,30.07,WNW,294,0.0,0.0,79,0.00,,,0.00,meteohub,2013-09-09 13:57:00,
2013-09-09 10:02:00,82.0,74.8,30.07,WNW,294,0.0,0.0,79,0.00,,,0.00,meteohub,2013-09-09 14:02:00,
2013-09-09 10:07:00,82.6,75.0,30.07,ESE,110,0.0,0.0,78,0.00,,,0.00,meteohub,2013-09-09 14:07:00,
2013-09-09 10:12:00,82.8,75.2,30.07,SSE,158,0.0,0.0,78,0.00,,,0.00,meteohub,2013-09-09 14:12:00,
2013-09-09 10:17:00,82.9,75.4,30.07,East,92,0.0,4.0,78,0.00,,,0.00,meteohub,2013-09-09 14:17:00,
2013-09-09 10:22:00,83.3,75.0,30.08,East,99,0.0,4.0,76,0.00,,,0.00,meteohub,2013-09-09 14:22:00,
2013-09-09 10:27:00,83.5,74.7,30.08,East,99,0.0,4.0,75,0.00,,,0.00,meteohub,2013-09-09 14:27:00,
2013-09-09 10:32:00,83.8,74.7,30.07,East,101,0.0,4.0,74,0.00,,,0.00,meteohub,2013-09-09 14:32:00,
2013-09-09 10:37:00,84.0,74.8,30.08,West,273,0.0,5.0,74,0.00,,,0.00,meteohub,2013-09-09 14:37:00,
2013-09-09 10:42:00,84.4,75.2,30.08,ESE,110,0.0,5.0,74,0.00,,,0.00,meteohub,2013-09-09 14:42:00,
2013-09-09 10:47:00,83.8,73.4,30.08,East,82,1.0,7.0,71,0.00,,,0.00,meteohub,2013-09-09 14:47:00,
2013-09-09 10:52:00,82.8,73.6,30.08,ENE,78,0.0,7.0,74,0.00,,,0.00,meteohub,2013-09-09 14:52:00,
2013-09-09 10:57:00,82.4,74.1,30.08,ENE,78,0.0,7.0,76,0.00,,,0.00,meteohub,2013-09-09 14:57:00,
2013-09-09 11:02:00,82.0,73.4,30.08,ENE,78,0.0,7.0,75,0.00,,,0.00,meteohub,2013-09-09 15:02:00,
2013-09-09 11:07:00,81.9,73.6,30.08,ENE,78,0.0,4.0,76,0.00,,,0.00,meteohub,2013-09-09 15:07:00,
2013-09-09 11:12:00,81.9,73.6,30.08,ENE,78,0.0,4.0,76,0.00,,,0.00,meteohub,2013-09-09 15:12:00,
2013-09-09 11:17:00,82.2,73.9,30.08,ENE,78,0.0,0.0,76,0.00,,,0.00,meteohub,2013-09-09 15:17:00,
2013-09-09 11:22:00,83.1,74.3,30.08,ENE,70,3.0,3.0,75,0.00,,,0.00,meteohub,2013-09-09 15:22:00,
2013-09-09 11:27:00,83.7,73.2,30.08,East,91,1.0,6.0,71,0.00,,,0.00,meteohub,2013-09-09 15:27:00,
2013-09-09 11:32:00,83.7,73.6,30.08,East,91,2.0,6.0,72,0.00,,,0.00,meteohub,2013-09-09 15:32:00,
2013-09-09 11:37:00,83.3,72.9,30.08,ESE,105,0.0,7.0,71,0.00,,,0.00,meteohub,2013-09-09 15:37:00,
2013-09-09 11:42:00,83.3,73.8,30.08,ENE,73,2.0,7.0,73,0.00,,,0.00,meteohub,2013-09-09 15:42:00,
2013-09-09 11:47:00,83.1,74.3,30.09,ENE,73,0.0,6.0,75,0.00,,,0.00,meteohub,2013-09-09 15:47:00,
2013-09-09 11:52:00,83.3,74.1,30.09,East,80,5.0,6.0,74,0.00,,,0.00,meteohub,2013-09-09 15:52:00,
2013-09-09 11:57:00,84.0,74.8,30.09,East,96,4.0,6.0,74,0.00,,,0.00,meteohub,2013-09-09 15:57:00,
2013-09-09 12:02:00,84.2,72.9,30.09,ENE,67,5.0,6.0,69,0.00,,,0.00,meteohub,2013-09-09 16:02:00,
2013-09-09 12:07:00,84.2,72.5,30.09,ESE,111,2.0,8.0,68,0.00,,,0.00,meteohub,2013-09-09 16:07:00,
2013-09-09 12:12:00,84.6,73.2,30.09,SE,127,2.0,9.0,69,0.00,,,0.00,meteohub,2013-09-09 16:12:00,
2013-09-09 12:17:00,84.7,73.4,30.09,East,94,7.0,9.0,69,0.00,,,0.00,meteohub,2013-09-09 16:17:00,
2013-09-09 12:22:00,84.2,73.8,30.09,East,86,4.0,12.0,71,0.00,,,0.00,meteohub,2013-09-09 16:22:00,
2013-09-09 12:27:00,84.6,74.5,30.10,SE,136,10.0,14.0,72,0.00,,,0.00,meteohub,2013-09-09 16:27:00,
2013-09-09 12:32:00,84.4,74.8,30.09,ENE,74,7.0,14.0,73,0.00,,,0.00,meteohub,2013-09-09 16:32:00,
2013-09-09 12:37:00,84.4,74.8,30.10,ESE,111,7.0,14.0,73,0.00,,,0.00,meteohub,2013-09-09 16:37:00,
2013-09-09 12:42:00,84.2,74.1,30.10,SE,125,4.0,14.0,72,0.00,,,0.00,meteohub,2013-09-09 16:42:00,
2013-09-09 12:47:00,84.0,73.9,30.09,ESE,115,4.0,12.0,72,0.00,,,0.00,meteohub,2013-09-09 16:47:00,
2013-09-09 12:52:00,84.0,73.6,30.09,ENE,71,6.0,12.0,71,0.00,,,0.00,meteohub,2013-09-09 16:52:00,
2013-09-09 12:57:00,84.4,73.9,30.09,ENE,73,6.0,14.0,71,0.00,,,0.00,meteohub,2013-09-09 16:57:00,
2013-09-09 13:02:00,84.2,74.1,30.09,ENE,64,3.0,14.0,72,0.00,,,0.00,meteohub,2013-09-09 17:02:00,
2013-09-09 13:07:00,84.6,74.5,30.09,ESE,118,4.0,14.0,72,0.00,,,0.00,meteohub,2013-09-09 17:07:00,
2013-09-09 13:12:00,84.9,74.1,30.09,ENE,74,0.0,11.0,70,0.00,,,0.00,meteohub,2013-09-09 17:12:00,
2013-09-09 13:17:00,84.9,73.6,30.09,East,90,6.0,12.0,69,0.00,,,0.00,meteohub,2013-09-09 17:17:00,
2013-09-09 13:22:00,84.6,73.2,30.09,ESE,105,8.0,12.0,69,0.00,,,0.00,meteohub,2013-09-09 17:22:00,
2013-09-09 13:27:00,84.4,73.0,30.09,ESE,123,5.0,12.0,69,0.00,,,0.00,meteohub,2013-09-09 17:27:00,
2013-09-09 13:32:00,83.8,72.5,30.09,East,87,5.0,12.0,69,0.00,,,0.00,meteohub,2013-09-09 17:32:00,
2013-09-09 13:37:00,83.8,73.8,30.09,ESE,114,9.0,14.0,72,0.00,,,0.00,meteohub,2013-09-09 17:37:00,
2013-09-09 13:42:00,84.0,73.9,30.09,East,98,5.0,14.0,72,0.00,,,0.00,meteohub,2013-09-09 17:42:00,
2013-09-09 13:47:00,83.8,73.8,30.09,ESE,110,0.0,14.0,72,0.00,,,0.00,meteohub,2013-09-09 17:47:00,
2013-09-09 13:52:00,84.0,73.6,30.09,East,101,5.0,14.0,71,0.00,,,0.00,meteohub,2013-09-09 17:52:00,
2013-09-09 13:57:00,84.0,73.6,30.09,SE,133,7.0,13.0,71,0.00,,,0.00,meteohub,2013-09-09 17:57:00,
2013-09-09 14:02:00,84.4,74.3,30.09,ENE,62,5.0,13.0,72,0.00,,,0.00,meteohub,2013-09-09 18:02:00,
2013-09-09 14:07:00,84.6,74.1,30.09,East,101,4.0,13.0,71,0.00,,,0.00,meteohub,2013-09-09 18:07:00,
2013-09-09 14:12:00,84.4,73.6,30.09,East,84,3.0,13.0,70,0.00,,,0.00,meteohub,2013-09-09 18:12:00,
2013-09-09 14:17:00,84.2,75.0,30.09,East,94,8.0,12.0,74,0.00,,,0.00,meteohub,2013-09-09 18:17:00,
2013-09-09 14:22:00,84.4,73.9,30.09,ENE,70,3.0,12.0,71,0.00,,,0.00,meteohub,2013-09-09 18:22:00,
2013-09-09 14:27:00,84.7,75.2,30.09,SE,127,5.0,10.0,73,0.00,,,0.00,meteohub,2013-09-09 18:27:00,
2013-09-09 14:32:00,84.7,74.3,30.09,ENE,68,4.0,10.0,71,0.00,,,0.00,meteohub,2013-09-09 18:32:00,
2013-09-09 14:37:00,84.6,74.1,30.09,ESE,112,6.0,11.0,71,0.00,,,0.00,meteohub,2013-09-09 18:37:00,
2013-09-09 14:42:00,84.4,73.0,30.09,SSW,193,0.0,11.0,69,0.00,,,0.00,meteohub,2013-09-09 18:42:00,
2013-09-09 14:47:00,84.4,74.3,30.09,East,92,0.0,11.0,72,0.00,,,0.00,meteohub,2013-09-09 18:47:00,
2013-09-09 14:52:00,84.0,73.6,30.09,East,84,5.0,11.0,71,0.00,,,0.00,meteohub,2013-09-09 18:52:00,
2013-09-09 14:57:00,83.7,74.1,30.09,ENE,76,6.0,12.0,73,0.00,,,0.00,meteohub,2013-09-09 18:57:00,
2013-09-09 15:02:00,83.5,73.9,30.09,ESE,108,2.0,12.0,73,0.00,,,0.00,meteohub,2013-09-09 19:02:00,
2013-09-09 15:07:00,84.0,74.8,30.09,ESE,105,7.0,15.0,74,0.00,,,0.00,meteohub,2013-09-09 19:07:00,
2013-09-09 15:12:00,84.0,74.5,30.08,ESE,111,4.0,15.0,73,0.00,,,0.00,meteohub,2013-09-09 19:12:00,
2013-09-09 15:17:00,83.8,73.8,30.08,SE,135,8.0,12.0,72,0.00,,,0.00,meteohub,2013-09-09 19:17:00,
2013-09-09 15:22:00,84.0,74.5,30.08,South,180,2.0,12.0,73,0.00,,,0.00,meteohub,2013-09-09 19:22:00,
2013-09-09 15:27:00,83.7,74.1,30.09,East,90,6.0,13.0,73,0.00,,,0.00,meteohub,2013-09-09 19:27:00,
2013-09-09 15:32:00,83.8,74.7,30.08,ENE,78,5.0,13.0,74,0.00,,,0.00,meteohub,2013-09-09 19:32:00,
2013-09-09 15:37:00,83.8,74.7,30.08,East,84,5.0,13.0,74,0.00,,,0.00,meteohub,2013-09-09 19:37:00,
2013-09-09 15:42:00,83.7,73.6,30.08,East,86,4.0,13.0,72,0.00,,,0.00,meteohub,2013-09-09 19:42:00,
2013-09-09 15:47:00,83.7,74.5,30.08,NE,46,2.0,15.0,74,0.00,,,0.00,meteohub,2013-09-09 19:47:00,
2013-09-09 15:52:00,84.2,75.4,30.08,East,98,5.0,15.0,75,0.00,,,0.00,meteohub,2013-09-09 19:52:00,
2013-09-09 15:57:00,84.0,74.8,30.09,SE,126,8.0,11.0,74,0.00,,,0.00,meteohub,2013-09-09 19:57:00,
2013-09-09 16:02:00,83.3,74.1,30.09,East,88,1.0,11.0,74,0.00,,,0.00,meteohub,2013-09-09 20:02:00,
2013-09-09 16:07:00,83.1,73.9,30.09,East,96,5.0,11.0,74,0.00,,,0.00,meteohub,2013-09-09 20:07:00,
2013-09-09 16:12:00,83.5,75.0,30.09,ENE,72,6.0,11.0,76,0.00,,,0.00,meteohub,2013-09-09 20:12:00,
2013-09-09 16:17:00,83.5,75.0,30.08,ESE,116,1.0,11.0,76,0.00,,,0.00,meteohub,2013-09-09 20:17:00,
2013-09-09 16:22:00,83.5,74.3,30.08,East,92,7.0,11.0,74,0.00,,,0.00,meteohub,2013-09-09 20:22:00,
2013-09-09 16:27:00,83.5,74.3,30.09,SSE,154,0.0,8.0,74,0.00,,,0.00,meteohub,2013-09-09 20:27:00,
2013-09-09 16:32:00,83.5,73.9,30.08,SE,128,2.0,8.0,73,0.00,,,0.00,meteohub,2013-09-09 20:32:00,
2013-09-09 16:37:00,83.5,74.3,30.08,ESE,118,4.0,9.0,74,0.00,,,0.00,meteohub,2013-09-09 20:37:00,
2013-09-09 16:42:00,83.1,74.3,30.08,ENE,76,5.0,9.0,75,0.00,,,0.00,meteohub,2013-09-09 20:42:00,
2013-09-09 16:47:00,83.1,73.9,30.09,East,96,6.0,8.0,74,0.00,,,0.00,meteohub,2013-09-09 20:47:00,
2013-09-09 16:52:00,83.5,75.0,30.08,East,94,0.0,8.0,76,0.00,,,0.00,meteohub,2013-09-09 20:52:00,
2013-09-09 16:57:00,83.5,74.3,30.09,ESE,109,1.0,12.0,74,0.00,,,0.00,meteohub,2013-09-09 20:57:00,
2013-09-09 17:02:00,83.3,73.8,30.08,East,101,0.0,12.0,73,0.00,,,0.00,meteohub,2013-09-09 21:02:00,
2013-09-09 17:07:00,83.1,73.6,30.08,East,98,4.0,12.0,73,0.00,,,0.00,meteohub,2013-09-09 21:07:00,
2013-09-09 17:12:00,82.9,73.0,30.08,SE,128,7.0,12.0,72,0.00,,,0.00,meteohub,2013-09-09 21:12:00,
2013-09-09 17:17:00,83.1,73.9,30.09,East,89,0.0,8.0,74,0.00,,,0.00,meteohub,2013-09-09 21:17:00,
2013-09-09 17:22:00,83.1,73.9,30.09,ENE,67,0.0,8.0,74,0.00,,,0.00,meteohub,2013-09-09 21:22:00,
2013-09-09 17:27:00,82.9,73.8,30.08,ENE,57,3.0,7.0,74,0.00,,,0.00,meteohub,2013-09-09 21:27:00,
2013-09-09 17:32:00,82.8,73.6,30.08,East,82,0.0,7.0,74,0.00,,,0.00,meteohub,2013-09-09 21:32:00,
2013-09-09 17:37:00,82.6,72.7,30.08,East,101,5.0,12.0,72,0.00,,,0.00,meteohub,2013-09-09 21:37:00,
2013-09-09 17:42:00,82.6,73.4,30.08,East,81,0.0,12.0,74,0.00,,,0.00,meteohub,2013-09-09 21:42:00,
2013-09-09 17:47:00,82.6,72.1,30.09,East,84,2.0,12.0,71,0.00,,,0.00,meteohub,2013-09-09 21:47:00,
2013-09-09 17:52:00,82.8,72.3,30.09,East,80,1.0,12.0,71,0.00,,,0.00,meteohub,2013-09-09 21:52:00,
2013-09-09 17:57:00,82.4,72.0,30.08,East,84,4.0,7.0,71,0.00,,,0.00,meteohub,2013-09-09 21:57:00,
2013-09-09 18:02:00,82.2,72.3,30.08,SE,136,4.0,7.0,72,0.00,,,0.00,meteohub,2013-09-09 22:02:00,
2013-09-09 18:07:00,82.2,72.3,30.09,ESE,104,5.0,9.0,72,0.00,,,0.00,meteohub,2013-09-09 22:07:00,
2013-09-09 18:12:00,82.0,72.5,30.08,East,84,3.0,9.0,73,0.00,,,0.00,meteohub,2013-09-09 22:12:00,
2013-09-09 18:17:00,81.7,72.1,30.08,ESE,112,0.0,9.0,73,0.00,,,0.00,meteohub,2013-09-09 22:17:00,
2013-09-09 18:22:00,81.7,72.1,30.08,East,81,3.0,8.0,73,0.00,,,0.00,meteohub,2013-09-09 22:22:00,
2013-09-09 18:27:00,81.7,72.5,30.08,ESE,113,2.0,8.0,74,0.00,,,0.00,meteohub,2013-09-09 22:27:00,
2013-09-09 18:32:00,81.3,72.3,30.08,East,98,4.0,8.0,74,0.00,,,0.00,meteohub,2013-09-09 22:32:00,
2013-09-09 18:37:00,81.1,71.6,30.08,East,86,2.0,7.0,73,0.00,,,0.00,meteohub,2013-09-09 22:37:00,
2013-09-09 18:42:00,81.0,72.0,30.08,East,81,0.0,7.0,74,0.00,,,0.00,meteohub,2013-09-09 22:42:00,
2013-09-09 18:47:00,80.8,71.8,30.08,ENE,65,0.0,7.0,74,0.00,,,0.00,meteohub,2013-09-09 22:47:00,
2013-09-09 18:52:00,80.4,71.8,30.09,East,86,3.0,7.0,75,0.00,,,0.00,meteohub,2013-09-09 22:52:00,
2013-09-09 18:57:00,80.1,71.4,30.09,East,98,2.0,5.0,75,0.00,,,0.00,meteohub,2013-09-09 22:57:00,
2013-09-09 19:02:00,79.9,71.6,30.09,ESE,111,0.0,5.0,76,0.00,,,0.00,meteohub,2013-09-09 23:02:00,
2013-09-09 19:07:00,79.5,71.6,30.09,ESE,111,0.0,5.0,77,0.00,,,0.00,meteohub,2013-09-09 23:07:00,
2013-09-09 19:12:00,79.2,71.8,30.09,ESE,111,0.0,5.0,78,0.00,,,0.00,meteohub,2013-09-09 23:12:00,
2013-09-09 19:17:00,78.8,71.4,30.09,ESE,111,0.0,1.0,78,0.00,,,0.00,meteohub,2013-09-09 23:17:00,
2013-09-09 19:22:00,78.4,71.4,30.09,ESE,111,0.0,1.0,79,0.00,,,0.00,meteohub,2013-09-09 23:22:00,
2013-09-09 19:27:00,78.3,71.6,30.09,ESE,111,0.0,0.0,80,0.00,,,0.00,meteohub,2013-09-09 23:27:00,
2013-09-09 19:32:00,77.7,71.8,30.09,ESE,111,0.0,0.0,82,0.00,,,0.00,meteohub,2013-09-09 23:32:00,
2013-09-09 19:37:00,77.2,71.6,30.09,ESE,111,0.0,0.0,83,0.00,,,0.00,meteohub,2013-09-09 23:37:00,
2013-09-09 19:42:00,76.6,71.1,30.09,ESE,111,0.0,0.0,83,0.00,,,0.00,meteohub,2013-09-09 23:42:00,
2013-09-09 19:47:00,76.5,71.2,30.09,ESE,111,0.0,0.0,84,0.00,,,0.00,meteohub,2013-09-09 23:47:00,
2013-09-09 19:52:00,75.9,70.7,30.09,ESE,111,0.0,0.0,84,0.00,,,0.00,meteohub,2013-09-09 23:52:00,
2013-09-09 19:57:00,75.6,71.1,30.09,ESE,111,0.0,0.0,86,0.00,,,0.00,meteohub,2013-09-09 23:57:00,
2013-09-09 20:02:00,75.0,70.9,30.09,ESE,111,0.0,0.0,87,0.00,,,0.00,meteohub,2013-09-10 00:02:00,
2013-09-09 20:07:00,74.8,71.1,30.09,ESE,111,0.0,0.0,88,0.00,,,0.00,meteohub,2013-09-10 00:07:00,
2013-09-09 20:12:00,74.7,71.2,30.09,ESE,111,0.0,0.0,89,0.00,,,0.00,meteohub,2013-09-10 00:12:00,
2013-09-09 20:17:00,74.5,71.1,30.09,ESE,111,0.0,0.0,89,0.00,,,0.00,meteohub,2013-09-10 00:17:00,
2013-09-09 20:22:00,74.1,70.7,30.09,ESE,111,0.0,0.0,89,0.00,,,0.00,meteohub,2013-09-10 00:22:00,
2013-09-09 20:27:00,73.9,70.5,30.09,ESE,111,0.0,0.0,89,0.00,,,0.00,meteohub,2013-09-10 00:27:00,
2013-09-09 20:32:00,73.6,70.5,30.09,ESE,111,0.0,0.0,90,0.00,,,0.00,meteohub,2013-09-10 00:32:00,
2013-09-09 20:37:00,73.2,70.2,30.10,ESE,111,0.0,0.0,90,0.00,,,0.00,meteohub,2013-09-10 00:37:00,
2013-09-09 20:42:00,73.0,70.0,30.10,ESE,111,0.0,0.0,90,0.00,,,0.00,meteohub,2013-09-10 00:42:00,
2013-09-09 20:47:00,72.7,69.6,30.10,ESE,111,0.0,0.0,90,0.00,,,0.00,meteohub,2013-09-10 00:47:00,
2013-09-09 20:52:00,72.3,69.3,30.10,ESE,111,0.0,0.0,90,0.00,,,0.00,meteohub,2013-09-10 00:52:00,
2013-09-09 20:57:00,72.1,69.4,30.10,ESE,111,0.0,0.0,91,0.00,,,0.00,meteohub,2013-09-10 00:57:00,
2013-09-09 21:02:00,71.8,69.1,30.10,ESE,111,0.0,0.0,91,0.00,,,0.00,meteohub,2013-09-10 01:02:00,
2013-09-09 21:07:00,71.6,69.1,30.10,ESE,111,0.0,0.0,92,0.00,,,0.00,meteohub,2013-09-10 01:07:00,
2013-09-09 21:12:00,71.4,68.9,30.10,ESE,111,0.0,0.0,92,0.00,,,0.00,meteohub,2013-09-10 01:12:00,
2013-09-09 21:17:00,71.2,68.7,30.10,ESE,111,0.0,0.0,92,0.00,,,0.00,meteohub,2013-09-10 01:17:00,
2013-09-09 21:22:00,71.1,68.5,30.10,ESE,111,0.0,0.0,92,0.00,,,0.00,meteohub,2013-09-10 01:22:00,
2013-09-09 21:27:00,70.9,68.7,30.10,ESE,111,0.0,0.0,93,0.00,,,0.00,meteohub,2013-09-10 01:27:00,
2013-09-09 21:32:00,70.5,68.4,30.10,ESE,111,0.0,0.0,93,0.00,,,0.00,meteohub,2013-09-10 01:32:00,
2013-09-09 21:37:00,70.3,67.8,30.11,ESE,111,0.0,0.0,92,0.00,,,0.00,meteohub,2013-09-10 01:37:00,
2013-09-09 21:42:00,70.0,67.8,30.10,ESE,111,0.0,0.0,93,0.00,,,0.00,meteohub,2013-09-10 01:42:00,
2013-09-09 21:47:00,69.8,67.6,30.10,ESE,111,0.0,0.0,93,0.00,,,0.00,meteohub,2013-09-10 01:47:00,
2013-09-09 21:52:00,69.6,67.5,30.10,ESE,111,0.0,0.0,93,0.00,,,0.00,meteohub,2013-09-10 01:52:00,
2013-09-09 21:57:00,69.4,67.6,30.11,ESE,111,0.0,0.0,94,0.00,,,0.00,meteohub,2013-09-10 01:57:00,
2013-09-09 22:02:00,69.4,67.6,30.11,ESE,111,0.0,0.0,94,0.00,,,0.00,meteohub,2013-09-10 02:02:00,
2013-09-09 22:07:00,69.3,67.5,30.11,ESE,111,0.0,0.0,94,0.00,,,0.00,meteohub,2013-09-10 02:07:00,
2013-09-09 22:12:00,69.1,67.3,30.11,ESE,111,0.0,0.0,94,0.00,,,0.00,meteohub,2013-09-10 02:12:00,
2013-09-09 22:17:00,68.7,66.9,30.12,ESE,111,0.0,0.0,94,0.00,,,0.00,meteohub,2013-09-10 02:17:00,
2013-09-09 22:22:00,68.9,67.5,30.12,ESE,111,0.0,0.0,95,0.00,,,0.00,meteohub,2013-09-10 02:22:00,
2013-09-09 22:27:00,68.9,67.5,30.12,ESE,111,0.0,0.0,95,0.00,,,0.00,meteohub,2013-09-10 02:27:00,
2013-09-09 22:32:00,68.7,67.3,30.12,ESE,111,0.0,0.0,95,0.00,,,0.00,meteohub,2013-09-10 02:32:00,
2013-09-09 22:37:00,68.7,67.3,30.12,ESE,111,0.0,0.0,95,0.00,,,0.00,meteohub,2013-09-10 02:37:00,
2013-09-09 22:42:00,68.5,67.1,30.12,ESE,111,0.0,0.0,95,0.00,,,0.00,meteohub,2013-09-10 02:42:00,
2013-09-09 22:47:00,68.4,66.9,30.12,ESE,111,0.0,0.0,95,0.00,,,0.00,meteohub,2013-09-10 02:47:00,
2013-09-09 22:52:00,68.2,66.7,30.12,ESE,111,0.0,0.0,95,0.00,,,0.00,meteohub,2013-09-10 02:52:00,
2013-09-09 22:57:00,68.2,66.7,30.12,ESE,111,0.0,0.0,95,0.00,,,0.00,meteohub,2013-09-10 02:57:00,
2013-09-09 23:02:00,67.8,66.4,30.13,ESE,111,0.0,0.0,95,0.00,,,0.00,meteohub,2013-09-10 03:02:00,
2013-09-09 23:07:00,67.6,66.2,30.13,ESE,111,0.0,0.0,95,0.00,,,0.00,meteohub,2013-09-10 03:07:00,
2013-09-09 23:12:00,67.6,66.2,30.13,ESE,111,0.0,0.0,95,0.00,,,0.00,meteohub,2013-09-10 03:12:00,
2013-09-09 23:17:00,67.5,66.0,30.13,ESE,111,0.0,0.0,95,0.00,,,0.00,meteohub,2013-09-10 03:17:00,
2013-09-09 23:22:00,67.5,66.0,30.13,ESE,111,0.0,0.0,95,0.00,,,0.00,meteohub,2013-09-10 03:22:00,
2013-09-09 23:27:00,67.5,66.2,30.13,ESE,111,0.0,0.0,96,0.00,,,0.00,meteohub,2013-09-10 03:27:00,
2013-09-09 23:32:00,67.5,66.0,30.14,ESE,111,0.0,0.0,95,0.00,,,0.00,meteohub,2013-09-10 03:32:00,
2013-09-09 23:37:00,67.3,65.8,30.14,ESE,111,0.0,0.0,95,0.00,,,0.00,meteohub,2013-09-10 03:37:00,
2013-09-09 23:42:00,67.3,65.8,30.14,ESE,111,0.0,0.0,95,0.00,,,0.00,meteohub,2013-09-10 03:42:00,
2013-09-09 23:47:00,67.1,65.8,30.14,ESE,111,0.0,0.0,96,0.00,,,0.00,meteohub,2013-09-10 03:47:00,
2013-09-09 23:52:00,66.9,65.7,30.14,ESE,111,0.0,0.0,96,0.00,,,0.00,meteohub,2013-09-10 03:52:00,
2013-09-09 23:57:00,66.9,65.7,30.14,ESE,111,0.0,0.0,96,0.00,,,0.00,meteohub,2013-09-10 03:57:00,